BOS weather

General Edward Lawrence Logan International Airport
Boston, Massachusetts, United States

Public forecast

Using degrees Fahrenheit for public forecast. Weather courtesy of forecast.io.

METAR (pilot weather report)

Retrieved 2018/08/20 03:35 UTC (2 minutes ago):

KBOS 200335Z 05011KT 7SM -RA BKN011 OVC025 20/18 A3010 RMK AO2 RAB34 P0000 T02000183 $

TAF (pilot weather forecast)

Forecast is more than 12 hours old.

Retrieved 2018/08/19 00:31 UTC (1 day ago):

TAF KBOS 192322Z 2000/2106 05012KT P6SM BKN025 FM200500 03008KT P6SM OVC015 FM201400 03008KT P6SM OVC040 FM201800 06010KT P6SM BKN060